Grosse Ile, MI

6:35 AM EDT on May 26, 2017 (GMT -0400)
Grosse Ile Municipal

Weather History for KONZ - September, 2013

Change the Weather History Date:

Thursday, September 12, 2013

  Actual Average (KDTW) Record (KDTW)
Temperature  
Mean Temperature 69 °F -  
Max Temperature 78 °F 75 °F 96 °F (1952)
Min Temperature 60 °F 53 °F 39 °F (1943)
Cooling Degree Days 4    
Growing Degree Days 19 (Base 50)    
Moisture  
Dew Point 61 °F    
Average Humidity 73    
Maximum Humidity 88    
Minimum Humidity 39    
Precipitation  
Precipitation 0.12 in - - ()
Sea Level Pressure  
Sea Level Pressure 29.90 in    
Wind  
Wind Speed 6 mph (WNW)    
Max Wind Speed 17 mph    
Max Gust Speed 33 mph    
Visibility 10 miles    
Events Rain    
Averages and records for this station are not official NWS values.
T = Trace of Precipitation, MM = Missing Value Source: NWS Daily Summary

Daily Weather History Graph

Daily Weather History Graph

Search for Another Location

Airport or City:

Trip Planner

Search our weather history database for the weather conditions in past years. The results will help you decide how hot, cold, wet, or windy it might be!

Date:

Astronomy

Sep. 12, 2013 Rise Set
Actual Time 7:09 AM EDT 7:47 PM EDT
Civil Twilight 6:41 AM EDT 8:15 PM EDT
Nautical Twilight 6:08 AM EDT 8:48 PM EDT
Astronomical Twilight 5:33 AM EDT 9:22 PM EDT
Moon 2:43 PM EDT (9/12) No Moon Set
Length of Visible Light 13h 33m
Length of Day
12h 37m
Waxing Crescent, 50% of the Moon is Illuminated
Sep 12
Waxing Crescent
Sep 12
First Quarter
Sep 19
Full
Sep 26
Last Quarter
Oct 4
New

Hourly Weather History & Observations

Time (EDT) Temp. Dew Point Humidity Pressure Visibility Wind Dir Wind Speed Gust Speed Precip Events Conditions
12:13 AM 71.6 °F 68.0 °F 88% 29.95 in 10.0 mi SW 3.5 mph - N/A   Mostly Cloudy
12:34 AM 71.6 °F 68.0 °F 88% 29.94 in 10.0 mi South 5.8 mph - N/A   Scattered Clouds
12:54 AM 71.6 °F 68.0 °F 88% 29.94 in 10.0 mi SSW 4.6 mph - N/A   Scattered Clouds
1:14 AM 71.6 °F 68.0 °F 88% 29.94 in 10.0 mi SW 4.6 mph - N/A   Mostly Cloudy
1:34 AM 71.6 °F 68.0 °F 88% 29.94 in 10.0 mi SW 3.5 mph - N/A   Overcast
1:53 AM 71.6 °F 68.0 °F 88% 29.94 in 10.0 mi SW 3.5 mph - N/A   Overcast
2:14 AM 71.6 °F 66.2 °F 83% 29.94 in 7.0 mi SW 6.9 mph - 0.03 in   Mostly Cloudy
2:34 AM 71.6 °F 66.2 °F 83% 29.93 in 10.0 mi SW 4.6 mph - 0.12 in Rain Light Rain
2:54 AM 69.8 °F 66.2 °F 88% 29.93 in 10.0 mi WSW 4.6 mph - 0.12 in   Mostly Cloudy
3:14 AM 69.8 °F 66.2 °F 88% 29.92 in 10.0 mi West 4.6 mph - N/A   Mostly Cloudy
3:34 AM 69.8 °F 66.2 °F 88% 29.92 in 10.0 mi WSW 3.5 mph - N/A   Scattered Clouds
3:54 AM 69.8 °F 66.2 °F 88% 29.92 in 10.0 mi WSW 3.5 mph - N/A   Mostly Cloudy
4:14 AM 69.8 °F 66.2 °F 88% 29.92 in 10.0 mi WSW 4.6 mph - N/A   Scattered Clouds
4:34 AM 69.8 °F 66.2 °F 88% 29.92 in 10.0 mi WSW 4.6 mph - N/A   Mostly Cloudy
4:54 AM 69.8 °F 66.2 °F 88% 29.92 in 10.0 mi West 3.5 mph - N/A   Overcast
5:14 AM 69.8 °F 66.2 °F 88% 29.91 in 10.0 mi WSW 4.6 mph - N/A   Overcast
5:34 AM 69.8 °F 66.2 °F 88% 29.91 in 10.0 mi WSW 3.5 mph - N/A   Mostly Cloudy
5:54 AM 69.8 °F 66.2 °F 88% 29.91 in 10.0 mi West 3.5 mph - N/A   Mostly Cloudy
6:14 AM 69.8 °F 66.2 °F 88% 29.91 in 10.0 mi WSW 3.5 mph - N/A   Scattered Clouds
6:33 AM 69.8 °F 66.2 °F 88% 29.91 in 10.0 mi WSW 4.6 mph - N/A   Scattered Clouds
6:54 AM 69.8 °F 66.2 °F 88% 29.90 in 10.0 mi WSW 3.5 mph - N/A   Scattered Clouds
7:14 AM 69.8 °F 66.2 °F 88% 29.90 in 10.0 mi Calm Calm - N/A   Clear
7:33 AM 69.8 °F 66.2 °F 88% 29.91 in 7.0 mi Calm Calm - N/A   Clear
7:54 AM 69.8 °F 66.2 °F 88% 29.91 in 7.0 mi WSW 5.8 mph - N/A   Clear
8:14 AM 69.8 °F 66.2 °F 88% 29.91 in 7.0 mi WSW 5.8 mph - N/A   Clear
8:34 AM 69.8 °F 66.2 °F 88% 29.90 in 7.0 mi WSW 4.6 mph - N/A   Clear
8:54 AM 69.8 °F 66.2 °F 88% 29.90 in 7.0 mi WSW 4.6 mph - N/A   Clear
9:14 AM 71.6 °F 66.2 °F 83% 29.90 in 7.0 mi West 5.8 mph - N/A   Mostly Cloudy
9:34 AM 71.6 °F 66.2 °F 83% 29.90 in 10.0 mi WNW 6.9 mph - N/A   Overcast
9:54 AM 71.6 °F 66.2 °F 83% 29.90 in 10.0 mi WNW 8.1 mph - N/A   Overcast
10:14 AM 71.6 °F 66.2 °F 83% 29.91 in 10.0 mi NW 13.8 mph 19.6 mph N/A   Overcast
10:34 AM 71.6 °F 66.2 °F 83% 29.90 in 10.0 mi WNW 6.9 mph - N/A   Overcast
10:54 AM 71.6 °F 66.2 °F 83% 29.91 in 10.0 mi NW 9.2 mph - N/A   Overcast
11:14 AM 71.6 °F 66.2 °F 83% 29.90 in 10.0 mi NW 10.4 mph - N/A   Mostly Cloudy
11:34 AM 71.6 °F 64.4 °F 78% 29.90 in 10.0 mi WNW 9.2 mph - N/A   Scattered Clouds
11:54 AM 73.4 °F 64.4 °F 73% 29.91 in 10.0 mi WNW 8.1 mph - N/A   Scattered Clouds
12:14 PM 73.4 °F 64.4 °F 73% 29.91 in 10.0 mi NW 8.1 mph - N/A   Scattered Clouds
12:34 PM 71.6 °F 62.6 °F 73% 29.91 in 10.0 mi WNW 11.5 mph - N/A   Clear
12:54 PM 71.6 °F 62.6 °F 73% 29.91 in 10.0 mi NW 8.1 mph - N/A   Clear
1:14 PM 73.4 °F 62.6 °F 69% 29.91 in 10.0 mi WNW 8.1 mph - N/A   Clear
1:34 PM 73.4 °F 59.0 °F 61% 29.91 in 10.0 mi NW 8.1 mph - N/A   Clear
1:53 PM 75.2 °F 57.2 °F 53% 29.90 in 10.0 mi WNW 6.9 mph - N/A   Clear
2:14 PM 77.0 °F 57.2 °F 50% 29.88 in 10.0 mi NW 8.1 mph - N/A   Clear
2:34 PM 77.0 °F 53.6 °F 44% 29.88 in 10.0 mi NW 8.1 mph 16.1 mph N/A   Clear
2:54 PM 78.8 °F 53.6 °F 42% 29.87 in 10.0 mi NNW 6.9 mph - N/A   Clear
3:14 PM 78.8 °F 53.6 °F 42% 29.86 in 10.0 mi WNW 9.2 mph - N/A   Clear
3:33 PM 78.8 °F 53.6 °F 42% 29.86 in 10.0 mi NNW 10.4 mph - N/A   Clear
3:54 PM 78.8 °F 53.6 °F 42% 29.85 in 10.0 mi NW 12.7 mph - N/A   Clear
4:14 PM 78.8 °F 51.8 °F 39% 29.85 in 10.0 mi North 12.7 mph 17.3 mph N/A   Clear
4:34 PM 78.8 °F 53.6 °F 42% 29.85 in 10.0 mi NNW 11.5 mph - N/A   Clear
4:54 PM 78.8 °F 53.6 °F 42% 29.84 in 10.0 mi WNW 10.4 mph 16.1 mph N/A   Clear
5:14 PM 78.8 °F 51.8 °F 39% 29.84 in 10.0 mi NW 11.5 mph - N/A   Clear
5:34 PM 77.0 °F 51.8 °F 41% 29.83 in 10.0 mi NW 12.7 mph - N/A   Scattered Clouds
5:54 PM 75.2 °F 51.8 °F 44% 29.83 in 10.0 mi NNW 8.1 mph - N/A   Clear
6:14 PM 75.2 °F 51.8 °F 44% 29.83 in 10.0 mi NW 8.1 mph - N/A   Clear
6:34 PM 75.2 °F 53.6 °F 47% 29.84 in 10.0 mi NW 8.1 mph - N/A   Clear
6:54 PM 75.2 °F 53.6 °F 47% 29.85 in 10.0 mi NW 10.4 mph - N/A   Scattered Clouds
7:14 PM 66.2 °F 57.2 °F 73% 29.88 in 10.0 mi North 17.3 mph 33.4 mph N/A Rain Rain
7:34 PM 64.4 °F 55.4 °F 73% 29.88 in 10.0 mi North 17.3 mph 24.2 mph N/A   Scattered Clouds
7:54 PM 64.4 °F 55.4 °F 73% 29.88 in 10.0 mi North 12.7 mph 24.2 mph N/A   Clear
8:14 PM 64.4 °F 57.2 °F 77% 29.88 in 10.0 mi North 8.1 mph - N/A   Scattered Clouds
8:34 PM 64.4 °F 57.2 °F 77% 29.88 in 10.0 mi North 12.7 mph 18.4 mph N/A   Clear
8:54 PM 64.4 °F 55.4 °F 73% 29.89 in 10.0 mi NNW 12.7 mph 19.6 mph N/A   Clear
9:14 PM 64.4 °F 55.4 °F 73% 29.91 in 10.0 mi NNW 11.5 mph - N/A   Clear
9:34 PM 64.4 °F 55.4 °F 73% 29.92 in 10.0 mi NNW 9.2 mph - N/A   Clear
9:54 PM 62.6 °F 55.4 °F 77% 29.92 in 10.0 mi North 6.9 mph - N/A   Clear
10:14 PM 62.6 °F 55.4 °F 77% 29.93 in 10.0 mi North 10.4 mph - N/A   Clear
10:34 PM 62.6 °F 53.6 °F 72% 29.93 in 10.0 mi North 10.4 mph - N/A   Scattered Clouds
10:54 PM 62.6 °F 53.6 °F 72% 29.94 in 10.0 mi NNW 11.5 mph 17.3 mph N/A   Clear
11:14 PM 62.6 °F 50.0 °F 63% 29.94 in 10.0 mi NNW 16.1 mph 21.9 mph N/A   Clear
11:34 PM 60.8 °F 48.2 °F 63% 29.94 in 10.0 mi North 12.7 mph 19.6 mph N/A   Clear
11:54 PM 60.8 °F 48.2 °F 63% 29.95 in 10.0 mi North 12.7 mph 17.3 mph N/A   Clear